Time;durP1;ratioP1;P1;durP2;ratioP2;P2;SDS_P1;SDS_P2;PMS_P1;PMS_P2;Temp;Humidity;BMP_temperature;BMP_pressure;BME280_temperature;BME280_humidity;BME280_pressure;Samples;Min_cycle;Max_cycle;Signal;HPM_P1;HPM_P2
2022/08/28 00:02:32;;;;;;;;;;;;;;;;;;5090783;28;20427;-75
2022/08/28 00:05:18;;;;;;;;;;;;;;;;;;5093251;28;19933;-74
2022/08/28 00:08:05;;;;;;;;;;;;;;;;;;5090988;28;20390;-75
2022/08/28 00:10:51;;;;;;;;;;;;;;;;;;5089653;28;19912;-75
2022/08/28 00:13:38;;;;;;;;;;;;;;;;;;5080920;28;19919;-75
2022/08/28 00:16:24;;;;;;;;;;;;;;;;;;5095353;27;19924;-74
2022/08/28 00:19:11;;;;;;;;;;;;;;;;;;5091060;28;20390;-76
2022/08/28 00:21:57;;;;;;;;;;;;;;;;;;5086466;28;19923;-75
2022/08/28 00:24:44;;;;;;;;;;;;;;;;;;5082247;28;19908;-74
2022/08/28 00:30:36;;;;;;;;;;;;;;;;;;5091133;28;19908;-75
2022/08/28 00:33:22;;;;;;;;;;;;;;;;;;5090582;28;19908;-76
2022/08/28 00:36:10;;;;;;;;;;;;;;;;;;5086112;28;19912;-75
2022/08/28 00:38:59;;;;;;;;;;;;;;;;;;5090199;28;20272;-76
2022/08/28 00:41:45;;;;;;;;;;;;;;;;;;5094015;28;19916;-76
2022/08/28 00:44:31;;;;;;;;;;;;;;;;;;5093595;28;19919;-76
2022/08/28 00:47:18;;;;;;;;;;;;;;;;;;5089294;28;19912;-76
2022/08/28 00:50:04;;;;;;;;;;;;;;;;;;5085589;28;19915;-76
2022/08/28 00:52:51;;;;;;;;;;;;;;;;;;5086898;28;19908;-75
2022/08/28 00:55:37;;;;;;;;;;;;;;;;;;5081875;28;19909;-75
2022/08/28 00:58:24;;;;;;;;;;;;;;;;;;5086709;28;20411;-76
2022/08/28 01:01:10;;;;;;;;;;;;;;;;;;5102272;28;19916;-74
2022/08/28 01:03:57;;;;;;;;;;;;;;;;;;5083785;28;19908;-75
2022/08/28 01:06:43;;;;;;;;;;;;;;;;;;5089125;28;20461;-75
2022/08/28 01:09:30;;;;;;;;;;;;;;;;;;5093400;28;19923;-75
2022/08/28 01:12:16;;;;;;;;;;;;;;;;;;5090386;28;20355;-75
2022/08/28 01:15:03;;;;;;;;;;;;;;;;;;5085122;28;19920;-75
2022/08/28 01:17:50;;;;;;;;;;;;;;;;;;5089603;28;19916;-75
2022/08/28 01:20:36;;;;;;;;;;;;;;;;;;5088857;28;19915;-75
2022/08/28 01:23:23;;;;;;;;;;;;;;;;;;5091898;28;19923;-75
2022/08/28 01:26:09;;;;;;;;;;;;;;;;;;5090100;28;19916;-75
2022/08/28 01:28:57;;;;;;;;;;;;;;;;;;5090641;28;19908;-74
2022/08/28 01:31:43;;;;;;;;;;;;;;;;;;5093747;28;19934;-75
2022/08/28 01:34:30;;;;;;;;;;;;;;;;;;5083927;28;20426;-76
2022/08/28 01:37:16;;;;;;;;;;;;;;;;;;5086798;28;20449;-75
2022/08/28 01:40:03;;;;;;;;;;;;;;;;;;5091749;28;19919;-76
2022/08/28 01:42:49;;;;;;;;;;;;;;;;;;5085249;28;19935;-76
2022/08/28 01:45:36;;;;;;;;;;;;;;;;;;5082736;28;19912;-76
2022/08/28 01:48:23;;;;;;;;;;;;;;;;;;5090607;28;19908;-76
2022/08/28 01:51:10;;;;;;;;;;;;;;;;;;5087045;28;19912;-75
2022/08/28 01:53:56;;;;;;;;;;;;;;;;;;5090433;28;20295;-76
2022/08/28 01:56:43;;;;;;;;;;;;;;;;;;5092675;28;19919;-76
2022/08/28 01:59:29;;;;;;;;;;;;;;;;;;5089057;28;20394;-74
2022/08/28 02:02:16;;;;;;;;;;;;;;;;;;5090282;28;19916;-76
2022/08/28 02:05:02;;;;;;;;;;;;;;;;;;5080713;28;19909;-76
2022/08/28 02:07:49;;;;;;;;;;;;;;;;;;5086420;28;20446;-76
2022/08/28 02:10:35;;;;;;;;;;;;;;;;;;5083197;28;19919;-76
2022/08/28 02:13:22;;;;;;;;;;;;;;;;;;5083415;28;19912;-76
2022/08/28 02:16:08;;;;;;;;;;;;;;;;;;5088007;28;19924;-76
2022/08/28 02:18:55;;;;;;;;;;;;;;;;;;5088175;28;19912;-76
2022/08/28 02:21:41;;;;;;;;;;;;;;;;;;5086945;28;19943;-76
2022/08/28 02:24:28;;;;;;;;;;;;;;;;;;5088484;28;19912;-81
2022/08/28 02:27:15;;;;;;;;;;;;;;;;;;5078059;28;19912;-76
2022/08/28 02:30:01;;;;;;;;;;;;;;;;;;5080377;28;19930;-76
2022/08/28 02:32:48;;;;;;;;;;;;;;;;;;5079840;28;19912;-76
2022/08/28 02:35:34;;;;;;;;;;;;;;;;;;5088186;28;20435;-76
2022/08/28 02:38:21;;;;;;;;;;;;;;;;;;5090540;28;19916;-75
2022/08/28 02:41:07;;;;;;;;;;;;;;;;;;5082640;28;19913;-75
2022/08/28 02:43:54;;;;;;;;;;;;;;;;;;5087451;28;19918;-75
2022/08/28 02:46:40;;;;;;;;;;;;;;;;;;5092372;28;19908;-76
2022/08/28 02:49:27;;;;;;;;;;;;;;;;;;5087741;28;19908;-75
2022/08/28 02:52:13;;;;;;;;;;;;;;;;;;5089127;28;20265;-76
2022/08/28 02:55:00;;;;;;;;;;;;;;;;;;5088304;28;19922;-75
2022/08/28 02:57:47;;;;;;;;;;;;;;;;;;5088177;28;20467;-75
2022/08/28 03:00:33;;;;;;;;;;;;;;;;;;5088105;28;19915;-75
2022/08/28 03:03:20;;;;;;;;;;;;;;;;;;5072850;28;19927;-74
2022/08/28 03:06:07;;;;;;;;;;;;;;;;;;5081273;28;20205;-75
2022/08/28 03:08:53;;;;;;;;;;;;;;;;;;5095407;28;19918;-74
2022/08/28 03:11:40;;;;;;;;;;;;;;;;;;5088686;28;19919;-74
2022/08/28 03:14:26;;;;;;;;;;;;;;;;;;5077846;28;19923;-75
2022/08/28 03:17:13;;;;;;;;;;;;;;;;;;5077345;28;20275;-75
2022/08/28 03:19:59;;;;;;;;;;;;;;;;;;5074483;28;19916;-75
2022/08/28 03:25:51;;;;;;;;;;;;;;;;;;5089057;28;19908;-74
2022/08/28 03:28:38;;;;;;;;;;;;;;;;;;5092742;28;20436;-76
2022/08/28 03:31:24;;;;;;;;;;;;;;;;;;5090123;28;20401;-75
2022/08/28 03:34:11;;;;;;;;;;;;;;;;;;5091058;28;19908;-75
2022/08/28 03:36:58;;;;;;;;;;;;;;;;;;5101049;28;19911;-75
2022/08/28 03:39:44;;;;;;;;;;;;;;;;;;5093053;28;19913;-74
2022/08/28 03:42:32;;;;;;;;;;;;;;;;;;5091924;28;19923;-75
2022/08/28 03:45:18;;;;;;;;;;;;;;;;;;5094629;28;20257;-75
2022/08/28 03:48:06;;;;;;;;;;;;;;;;;;5092423;28;19918;-75
2022/08/28 03:50:52;;;;;;;;;;;;;;;;;;5090094;28;19924;-75
2022/08/28 03:53:38;;;;;;;;;;;;;;;;;;5092075;28;19934;-75
2022/08/28 03:56:25;;;;;;;;;;;;;;;;;;5082415;28;19913;-75
2022/08/28 03:59:11;;;;;;;;;;;;;;;;;;5091000;28;20286;-75
2022/08/28 04:01:58;;;;;;;;;;;;;;;;;;5091094;28;20003;-76
2022/08/28 04:04:44;;;;;;;;;;;;;;;;;;5091136;28;19909;-75
2022/08/28 04:07:31;;;;;;;;;;;;;;;;;;5091976;28;19912;-75
2022/08/28 04:10:18;;;;;;;;;;;;;;;;;;5090765;28;19908;-75
2022/08/28 04:13:05;;;;;;;;;;;;;;;;;;5094248;28;19916;-75
2022/08/28 04:15:52;;;;;;;;;;;;;;;;;;5094821;28;19927;-76
2022/08/28 04:18:39;;;;;;;;;;;;;;;;;;5092184;28;19912;-75
2022/08/28 04:21:26;;;;;;;;;;;;;;;;;;5103935;28;19914;-76
2022/08/28 04:24:12;;;;;;;;;;;;;;;;;;5089581;28;19908;-75
2022/08/28 04:26:59;;;;;;;;;;;;;;;;;;5092340;28;19912;-75
2022/08/28 04:29:46;;;;;;;;;;;;;;;;;;5090977;28;19908;-75
2022/08/28 04:32:34;;;;;;;;;;;;;;;;;;5090814;28;19916;-75
2022/08/28 04:35:20;;;;;;;;;;;;;;;;;;5072902;28;20292;-76
2022/08/28 04:38:07;;;;;;;;;;;;;;;;;;5088920;28;20357;-74
2022/08/28 04:40:53;;;;;;;;;;;;;;;;;;5094646;28;19934;-76
2022/08/28 04:43:40;;;;;;;;;;;;;;;;;;5095084;28;19926;-76
2022/08/28 04:46:26;;;;;;;;;;;;;;;;;;5094592;28;19908;-76
2022/08/28 04:49:14;;;;;;;;;;;;;;;;;;5090682;28;19912;-76
2022/08/28 04:52:00;;;;;;;;;;;;;;;;;;5091470;28;20361;-76
2022/08/28 04:54:47;;;;;;;;;;;;;;;;;;5087196;28;19919;-75
2022/08/28 04:57:33;;;;;;;;;;;;;;;;;;5089565;28;19912;-75
2022/08/28 05:00:20;;;;;;;;;;;;;;;;;;5091073;28;19927;-77
2022/08/28 05:03:06;;;;;;;;;;;;;;;;;;5092079;28;19924;-75
2022/08/28 05:05:53;;;;;;;;;;;;;;;;;;5084465;28;19912;-74
2022/08/28 05:08:39;;;;;;;;;;;;;;;;;;5088885;28;20501;-75
2022/08/28 05:11:26;;;;;;;;;;;;;;;;;;5090348;28;19908;-75
2022/08/28 05:14:13;;;;;;;;;;;;;;;;;;5086070;28;20360;-75
2022/08/28 05:17:00;;;;;;;;;;;;;;;;;;5095952;28;19922;-75
2022/08/28 05:19:47;;;;;;;;;;;;;;;;;;5089119;28;19916;-75
2022/08/28 05:22:33;;;;;;;;;;;;;;;;;;5089204;28;19920;-75
2022/08/28 05:25:20;;;;;;;;;;;;;;;;;;5079909;28;19919;-75
2022/08/28 05:28:06;;;;;;;;;;;;;;;;;;5090935;28;20394;-74
2022/08/28 05:30:53;;;;;;;;;;;;;;;;;;5075801;28;19912;-75
2022/08/28 05:33:39;;;;;;;;;;;;;;;;;;5080894;28;19912;-75
2022/08/28 05:36:25;;;;;;;;;;;;;;;;;;5090625;28;19938;-74
2022/08/28 05:39:12;;;;;;;;;;;;;;;;;;5089939;28;19908;-75
2022/08/28 05:41:58;;;;;;;;;;;;;;;;;;5087284;28;19991;-76
2022/08/28 05:44:45;;;;;;;;;;;;;;;;;;5094541;28;19923;-76
2022/08/28 05:47:31;;;;;;;;;;;;;;;;;;5093501;28;20364;-76
2022/08/28 05:50:18;;;;;;;;;;;;;;;;;;5091693;28;19914;-76
2022/08/28 05:53:05;;;;;;;;;;;;;;;;;;5091952;28;19919;-76
2022/08/28 05:55:51;;;;;;;;;;;;;;;;;;5090708;28;20352;-76
2022/08/28 05:58:39;;;;;;;;;;;;;;;;;;5104515;28;19908;-75
2022/08/28 06:01:28;;;;;;;;;;;;;;;;;;5074248;28;19916;-76
2022/08/28 06:04:16;;;;;;;;;;;;;;;;;;5103907;28;19920;-75
2022/08/28 06:07:03;;;;;;;;;;;;;;;;;;5077560;28;19912;-76
2022/08/28 06:09:49;;;;;;;;;;;;;;;;;;5087434;28;19936;-76
2022/08/28 06:12:36;;;;;;;;;;;;;;;;;;5092026;28;19908;-76
2022/08/28 06:15:22;;;;;;;;;;;;;;;;;;5091335;28;20395;-74
2022/08/28 06:18:09;;;;;;;;;;;;;;;;;;5081104;28;19915;-75
2022/08/28 06:20:57;;;;;;;;;;;;;;;;;;5088789;28;21405;-75
2022/08/28 06:23:49;;;;;;;;;;;;;;;;;;5089107;28;19924;-74
2022/08/28 06:26:35;;;;;;;;;;;;;;;;;;5085128;28;19909;-76
2022/08/28 06:29:22;;;;;;;;;;;;;;;;;;5087445;28;19912;-75
2022/08/28 06:32:08;;;;;;;;;;;;;;;;;;5083250;28;20348;-77
2022/08/28 06:34:55;;;;;;;;;;;;;;;;;;5072799;28;19919;-75
2022/08/28 06:37:41;;;;;;;;;;;;;;;;;;5083789;28;19912;-75
2022/08/28 06:40:28;;;;;;;;;;;;;;;;;;5087069;28;19914;-75
2022/08/28 06:43:14;;;;;;;;;;;;;;;;;;5088100;28;20018;-75
2022/08/28 06:46:01;;;;;;;;;;;;;;;;;;5084435;28;19912;-76
2022/08/28 06:48:50;;;;;;;;;;;;;;;;;;5100506;28;20268;-75
2022/08/28 06:51:36;;;;;;;;;;;;;;;;;;5101508;28;19912;-75
2022/08/28 06:54:23;;;;;;;;;;;;;;;;;;5088212;28;19912;-75
2022/08/28 06:57:09;;;;;;;;;;;;;;;;;;5087764;28;20722;-76
2022/08/28 06:59:56;;;;;;;;;;;;;;;;;;5088518;28;19912;-76
2022/08/28 07:02:42;;;;;;;;;;;;;;;;;;5089573;28;20394;-75
2022/08/28 07:05:29;;;;;;;;;;;;;;;;;;5092204;28;19919;-74
2022/08/28 07:08:15;;;;;;;;;;;;;;;;;;5092992;28;19919;-75
2022/08/28 07:11:02;;;;;;;;;;;;;;;;;;5091726;28;19908;-75
2022/08/28 07:13:49;;;;;;;;;;;;;;;;;;5092220;28;19915;-74
2022/08/28 07:16:36;;;;;;;;;;;;;;;;;;5075224;28;19936;-76
2022/08/28 07:19:23;;;;;;;;;;;;;;;;;;5071510;28;19912;-75
2022/08/28 07:22:09;;;;;;;;;;;;;;;;;;5071537;28;19927;-75
2022/08/28 07:24:56;;;;;;;;;;;;;;;;;;5070479;28;19917;-75
2022/08/28 07:27:42;;;;;;;;;;;;;;;;;;5071775;28;19912;-76
2022/08/28 07:30:29;;;;;;;;;;;;;;;;;;5066146;28;19927;-75
2022/08/28 07:33:15;;;;;;;;;;;;;;;;;;5071148;28;20001;-75
2022/08/28 07:36:02;;;;;;;;;;;;;;;;;;5072475;28;19908;-74
2022/08/28 07:38:49;;;;;;;;;;;;;;;;;;5064050;28;19909;-74
2022/08/28 07:41:37;;;;;;;;;;;;;;;;;;5073916;28;19912;-75
2022/08/28 07:47:32;;;;;;;;;;;;;;;;;;5070923;28;19922;-76
2022/08/28 07:50:19;;;;;;;;;;;;;;;;;;5068379;28;19919;-75
2022/08/28 07:53:05;;;;;;;;;;;;;;;;;;5072466;28;19913;-75
2022/08/28 07:55:52;;;;;;;;;;;;;;;;;;5071194;28;20261;-75
2022/08/28 07:58:39;;;;;;;;;;;;;;;;;;5066839;28;19915;-74
2022/08/28 08:01:25;;;;;;;;;;;;;;;;;;5070450;28;19912;-76
2022/08/28 08:04:12;;;;;;;;;;;;;;;;;;5067611;28;19923;-75
2022/08/28 08:06:58;;;;;;;;;;;;;;;;;;5072329;28;19915;-76
2022/08/28 08:09:45;;;;;;;;;;;;;;;;;;5070563;28;19908;-74
2022/08/28 08:12:33;;;;;;;;;;;;;;;;;;5062681;28;19923;-75
2022/08/28 08:15:19;;;;;;;;;;;;;;;;;;5081131;28;19935;-75
2022/08/28 08:18:06;;;;;;;;;;;;;;;;;;5091659;28;19916;-75
2022/08/28 08:20:52;;;;;;;;;;;;;;;;;;5089905;28;20356;-75
2022/08/28 08:23:39;;;;;;;;;;;;;;;;;;5092225;28;19924;-76
2022/08/28 08:26:26;;;;;;;;;;;;;;;;;;5090905;28;19919;-79
2022/08/28 08:29:13;;;;;;;;;;;;;;;;;;5088473;28;20257;-75
2022/08/28 08:32:03;;;;;;;;;;;;;;;;;;5088947;28;19919;-75
2022/08/28 08:34:50;;;;;;;;;;;;;;;;;;5096287;28;19912;-74
2022/08/28 08:37:36;;;;;;;;;;;;;;;;;;5088675;28;19923;-75
2022/08/28 08:40:23;;;;;;;;;;;;;;;;;;5088875;28;19908;-75
2022/08/28 08:43:10;;;;;;;;;;;;;;;;;;5096253;28;20407;-76
2022/08/28 08:45:56;;;;;;;;;;;;;;;;;;5076200;28;19916;-75
2022/08/28 08:48:42;;;;;;;;;;;;;;;;;;5082871;28;20376;-76
2022/08/28 08:51:29;;;;;;;;;;;;;;;;;;5094845;28;20034;-76
2022/08/28 08:54:15;;;;;;;;;;;;;;;;;;5103130;27;20352;-76
2022/08/28 08:57:02;;;;;;;;;;;;;;;;;;5084766;28;19915;-76
2022/08/28 08:59:49;;;;;;;;;;;;;;;;;;5089373;28;19908;-76
2022/08/28 09:02:36;;;;;;;;;;;;;;;;;;5088463;28;19916;-76
2022/08/28 09:05:22;;;;;;;;;;;;;;;;;;5086934;28;19939;-75
2022/08/28 09:08:09;;;;;;;;;;;;;;;;;;5072674;28;19908;-75
2022/08/28 09:10:55;;;;;;;;;;;;;;;;;;5089067;28;19912;-76
2022/08/28 09:13:41;;;;;;;;;;;;;;;;;;5087946;28;19926;-76
2022/08/28 09:16:28;;;;;;;;;;;;;;;;;;5092351;28;19920;-76
2022/08/28 09:19:14;;;;;;;;;;;;;;;;;;5090774;28;19908;-76
2022/08/28 09:22:01;;;;;;;;;;;;;;;;;;5089817;28;19912;-76
2022/08/28 09:24:47;;;;;;;;;;;;;;;;;;5087735;28;20296;-76
2022/08/28 09:27:34;;;;;;;;;;;;;;;;;;5104053;28;19908;-76
2022/08/28 09:30:20;;;;;;;;;;;;;;;;;;5079684;28;19923;-76
2022/08/28 09:33:07;;;;;;;;;;;;;;;;;;5088003;28;19927;-76
2022/08/28 09:35:53;;;;;;;;;;;;;;;;;;5087980;28;19912;-75
2022/08/28 09:38:40;;;;;;;;;;;;;;;;;;5080093;28;19912;-76
2022/08/28 09:44:31;;;;;;;;;;;;;;;;;;5087869;28;19922;-75
2022/08/28 09:47:18;;;;;;;;;;;;;;;;;;5091686;28;19919;-76
2022/08/28 09:50:04;;;;;;;;;;;;;;;;;;5094789;28;20260;-76
2022/08/28 09:52:51;;;;;;;;;;;;;;;;;;5089662;28;19919;-75
2022/08/28 09:55:37;;;;;;;;;;;;;;;;;;5089234;28;20283;-75
2022/08/28 09:58:25;;;;;;;;;;;;;;;;;;5085839;28;19907;-75
2022/08/28 10:01:11;;;;;;;;;;;;;;;;;;5088822;28;19908;-75
2022/08/28 10:03:58;;;;;;;;;;;;;;;;;;5090592;28;19927;-76
2022/08/28 10:06:44;;;;;;;;;;;;;;;;;;5083497;28;19922;-75
2022/08/28 10:09:31;;;;;;;;;;;;;;;;;;5089155;28;19919;-76
2022/08/28 10:12:18;;;;;;;;;;;;;;;;;;5089236;28;19916;-76
2022/08/28 10:15:05;;;;;;;;;;;;;;;;;;5088252;28;19920;-76
2022/08/28 10:17:51;;;;;;;;;;;;;;;;;;5082179;28;19908;-75
2022/08/28 10:20:38;;;;;;;;;;;;;;;;;;5085649;28;19950;-75
2022/08/28 10:23:26;;;;;;;;;;;;;;;;;;5092161;28;19927;-75
2022/08/28 10:26:12;;;;;;;;;;;;;;;;;;5085567;28;19923;-75
2022/08/28 10:28:59;;;;;;;;;;;;;;;;;;5087808;28;19908;-76
2022/08/28 10:31:46;;;;;;;;;;;;;;;;;;5087442;28;19908;-76
2022/08/28 10:34:32;;;;;;;;;;;;;;;;;;5093427;28;19908;-75
2022/08/28 10:37:19;;;;;;;;;;;;;;;;;;5084767;28;19916;-76
2022/08/28 10:40:07;;;;;;;;;;;;;;;;;;5083878;28;19908;-75
2022/08/28 10:42:54;;;;;;;;;;;;;;;;;;5086592;28;19918;-75
2022/08/28 10:45:40;;;;;;;;;;;;;;;;;;5087058;28;19919;-74
2022/08/28 10:48:26;;;;;;;;;;;;;;;;;;5090043;28;19915;-75
2022/08/28 10:51:13;;;;;;;;;;;;;;;;;;5088463;28;20264;-75
2022/08/28 10:53:59;;;;;;;;;;;;;;;;;;5090476;28;20295;-75
2022/08/28 10:56:46;;;;;;;;;;;;;;;;;;5088051;28;19912;-74
2022/08/28 10:59:32;;;;;;;;;;;;;;;;;;5092728;28;19915;-75
2022/08/28 11:02:19;;;;;;;;;;;;;;;;;;5088272;28;19912;-75
2022/08/28 11:05:05;;;;;;;;;;;;;;;;;;5087639;28;20249;-75
2022/08/28 11:07:52;;;;;;;;;;;;;;;;;;5080096;28;19909;-75
2022/08/28 11:10:38;;;;;;;;;;;;;;;;;;5084719;28;19908;-76
2022/08/28 11:13:25;;;;;;;;;;;;;;;;;;5086550;28;20375;-76
2022/08/28 11:16:11;;;;;;;;;;;;;;;;;;5080637;28;19924;-76
2022/08/28 11:18:58;;;;;;;;;;;;;;;;;;5090990;28;19909;-75
2022/08/28 11:21:45;;;;;;;;;;;;;;;;;;5093635;28;19949;-75
2022/08/28 11:24:31;;;;;;;;;;;;;;;;;;5095325;28;19927;-76
2022/08/28 11:27:18;;;;;;;;;;;;;;;;;;5094091;28;20383;-75
2022/08/28 11:30:05;;;;;;;;;;;;;;;;;;5086042;28;19927;-76
2022/08/28 11:32:51;;;;;;;;;;;;;;;;;;5087113;28;20425;-75
2022/08/28 11:35:38;;;;;;;;;;;;;;;;;;5085875;28;19908;-76
2022/08/28 11:38:24;;;;;;;;;;;;;;;;;;5086555;28;19919;-75
2022/08/28 11:41:12;;;;;;;;;;;;;;;;;;5087548;28;20299;-75
2022/08/28 11:43:58;;;;;;;;;;;;;;;;;;5085738;28;19923;-75
2022/08/28 11:46:44;;;;;;;;;;;;;;;;;;5088424;28;20410;-75
2022/08/28 11:49:31;;;;;;;;;;;;;;;;;;5088171;28;19919;-76
2022/08/28 11:52:17;;;;;;;;;;;;;;;;;;5095388;28;19920;-74
2022/08/28 11:55:04;;;;;;;;;;;;;;;;;;5101953;28;19918;-76
2022/08/28 11:57:50;;;;;;;;;;;;;;;;;;5086059;28;19923;-76
2022/08/28 12:00:37;;;;;;;;;;;;;;;;;;5089005;28;19908;-77
2022/08/28 12:03:24;;;;;;;;;;;;;;;;;;5088610;28;20316;-77
2022/08/28 12:06:10;;;;;;;;;;;;;;;;;;5081975;28;19916;-75
2022/08/28 12:08:57;;;;;;;;;;;;;;;;;;5090638;28;19926;-76
2022/08/28 12:11:43;;;;;;;;;;;;;;;;;;5083678;28;20452;-75
2022/08/28 12:14:30;;;;;;;;;;;;;;;;;;5085348;28;19927;-75
2022/08/28 12:17:16;;;;;;;;;;;;;;;;;;5071741;28;19922;-76
2022/08/28 12:20:03;;;;;;;;;;;;;;;;;;5087254;28;19908;-77
2022/08/28 12:22:51;;;;;;;;;;;;;;;;;;5083099;28;19927;-77
2022/08/28 12:25:38;;;;;;;;;;;;;;;;;;5082581;28;19923;-76
2022/08/28 12:28:24;;;;;;;;;;;;;;;;;;5082118;28;19912;-75
2022/08/28 12:31:11;;;;;;;;;;;;;;;;;;5089882;28;19916;-75
2022/08/28 12:33:57;;;;;;;;;;;;;;;;;;5077557;28;19912;-78
2022/08/28 12:36:44;;;;;;;;;;;;;;;;;;5087983;28;19912;-77
2022/08/28 12:39:30;;;;;;;;;;;;;;;;;;5087997;28;19920;-77
2022/08/28 12:42:17;;;;;;;;;;;;;;;;;;5084985;28;19909;-78
2022/08/28 12:45:04;;;;;;;;;;;;;;;;;;5101000;28;19912;-77
2022/08/28 12:47:50;;;;;;;;;;;;;;;;;;5086648;28;19912;-76
2022/08/28 12:50:37;;;;;;;;;;;;;;;;;;5084401;28;19909;-77
2022/08/28 12:53:23;;;;;;;;;;;;;;;;;;5090858;28;19908;-75
2022/08/28 12:56:10;;;;;;;;;;;;;;;;;;5088759;28;19919;-75
2022/08/28 12:58:56;;;;;;;;;;;;;;;;;;5072556;28;19908;-76
2022/08/28 13:01:43;;;;;;;;;;;;;;;;;;5089253;28;19912;-74
2022/08/28 13:04:29;;;;;;;;;;;;;;;;;;5081252;28;20411;-74
2022/08/28 13:07:16;;;;;;;;;;;;;;;;;;5089920;28;19919;-76
2022/08/28 13:10:02;;;;;;;;;;;;;;;;;;5096210;28;20415;-76
2022/08/28 13:12:49;;;;;;;;;;;;;;;;;;5082127;28;19908;-75
2022/08/28 13:15:35;;;;;;;;;;;;;;;;;;5088688;28;19920;-76
2022/08/28 13:18:21;;;;;;;;;;;;;;;;;;5091932;28;19912;-76
2022/08/28 13:21:08;;;;;;;;;;;;;;;;;;5089020;28;20386;-75
2022/08/28 13:23:54;;;;;;;;;;;;;;;;;;5088799;28;19923;-76
2022/08/28 13:26:41;;;;;;;;;;;;;;;;;;5090481;28;19917;-76
2022/08/28 13:29:28;;;;;;;;;;;;;;;;;;5088376;28;19908;-75
2022/08/28 13:32:14;;;;;;;;;;;;;;;;;;5084559;28;20435;-74
2022/08/28 13:35:01;;;;;;;;;;;;;;;;;;5086827;28;19912;-76
2022/08/28 13:37:47;;;;;;;;;;;;;;;;;;5073788;28;20372;-75
2022/08/28 13:40:34;;;;;;;;;;;;;;;;;;5079756;28;19912;-76
2022/08/28 13:43:20;;;;;;;;;;;;;;;;;;5085012;28;19920;-76
2022/08/28 13:46:07;;;;;;;;;;;;;;;;;;5088035;28;19908;-78
2022/08/28 13:48:53;;;;;;;;;;;;;;;;;;5092431;28;19912;-75
2022/08/28 13:51:40;;;;;;;;;;;;;;;;;;5088541;28;19922;-76
2022/08/28 13:54:26;;;;;;;;;;;;;;;;;;5086612;28;19915;-76
2022/08/28 13:57:13;;;;;;;;;;;;;;;;;;5091992;28;19932;-76
2022/08/28 13:59:59;;;;;;;;;;;;;;;;;;5087931;28;19915;-75
2022/08/28 14:05:51;;;;;;;;;;;;;;;;;;5097507;28;19951;-76
2022/08/28 14:08:38;;;;;;;;;;;;;;;;;;5089633;28;19916;-76
2022/08/28 14:11:25;;;;;;;;;;;;;;;;;;5085403;28;19913;-77
2022/08/28 14:14:11;;;;;;;;;;;;;;;;;;5098630;28;19922;-76
2022/08/28 14:16:58;;;;;;;;;;;;;;;;;;5087774;28;19928;-76
2022/08/28 14:19:44;;;;;;;;;;;;;;;;;;5066038;28;19912;-76
2022/08/28 14:22:31;;;;;;;;;;;;;;;;;;5087370;28;19918;-75
2022/08/28 14:25:17;;;;;;;;;;;;;;;;;;5082227;28;19918;-76
2022/08/28 14:28:04;;;;;;;;;;;;;;;;;;5083838;28;19916;-76
2022/08/28 14:30:50;;;;;;;;;;;;;;;;;;5087021;28;20284;-75
2022/08/28 14:33:37;;;;;;;;;;;;;;;;;;5088370;28;19912;-76
2022/08/28 14:36:24;;;;;;;;;;;;;;;;;;5080767;28;19908;-76
2022/08/28 14:39:10;;;;;;;;;;;;;;;;;;5084731;28;20538;-76
2022/08/28 14:41:57;;;;;;;;;;;;;;;;;;5087113;28;19908;-76
2022/08/28 14:44:43;;;;;;;;;;;;;;;;;;5075714;28;20612;-77
2022/08/28 14:47:30;;;;;;;;;;;;;;;;;;5076993;28;20310;-77
2022/08/28 14:50:16;;;;;;;;;;;;;;;;;;5091256;28;19908;-77
2022/08/28 14:53:04;;;;;;;;;;;;;;;;;;5093641;28;20033;-76
2022/08/28 14:55:50;;;;;;;;;;;;;;;;;;5088337;28;20291;-76
2022/08/28 14:58:37;;;;;;;;;;;;;;;;;;5081878;28;19931;-77
2022/08/28 15:01:24;;;;;;;;;;;;;;;;;;5088525;28;19915;-77
2022/08/28 15:04:10;;;;;;;;;;;;;;;;;;5088034;28;20390;-77
2022/08/28 15:06:57;;;;;;;;;;;;;;;;;;5072777;28;19908;-77
2022/08/28 15:09:43;;;;;;;;;;;;;;;;;;5079617;28;19919;-77
2022/08/28 15:12:30;;;;;;;;;;;;;;;;;;5087838;28;19927;-76
2022/08/28 15:15:17;;;;;;;;;;;;;;;;;;5065849;28;20390;-76
2022/08/28 15:18:03;;;;;;;;;;;;;;;;;;5082543;28;19951;-75
2022/08/28 15:20:50;;;;;;;;;;;;;;;;;;5075997;28;19919;-76
2022/08/28 15:23:36;;;;;;;;;;;;;;;;;;5085530;28;19925;-76
2022/08/28 15:26:23;;;;;;;;;;;;;;;;;;5073448;28;19915;-76
2022/08/28 15:29:10;;;;;;;;;;;;;;;;;;5088603;28;19923;-76
2022/08/28 15:31:57;;;;;;;;;;;;;;;;;;5087614;28;19912;-76
2022/08/28 15:34:43;;;;;;;;;;;;;;;;;;5088596;28;20296;-80
2022/08/28 15:37:30;;;;;;;;;;;;;;;;;;5088938;28;19916;-80
2022/08/28 15:43:21;;;;;;;;;;;;;;;;;;5091540;28;19919;-78
2022/08/28 15:46:08;;;;;;;;;;;;;;;;;;5091312;28;19919;-79
2022/08/28 15:48:54;;;;;;;;;;;;;;;;;;5076189;28;20415;-79
2022/08/28 15:51:41;;;;;;;;;;;;;;;;;;5094226;28;19920;-80
2022/08/28 15:54:27;;;;;;;;;;;;;;;;;;5093251;28;19907;-79
2022/08/28 15:57:14;;;;;;;;;;;;;;;;;;5093891;28;19927;-80
2022/08/28 16:00:00;;;;;;;;;;;;;;;;;;5098158;28;19908;-79
2022/08/28 16:02:47;;;;;;;;;;;;;;;;;;5094121;28;20372;-79
2022/08/28 16:05:33;;;;;;;;;;;;;;;;;;5090983;28;19912;-80
2022/08/28 16:08:20;;;;;;;;;;;;;;;;;;5090912;28;19924;-78
2022/08/28 16:11:06;;;;;;;;;;;;;;;;;;5093183;28;19911;-77
2022/08/28 16:13:53;;;;;;;;;;;;;;;;;;5085114;28;19919;-78
2022/08/28 16:16:39;;;;;;;;;;;;;;;;;;5069612;28;19921;-78
2022/08/28 16:19:26;;;;;;;;;;;;;;;;;;5068771;28;19919;-78
2022/08/28 16:22:14;;;;;;;;;;;;;;;;;;5069050;28;20518;-77
2022/08/28 16:25:01;;;;;;;;;;;;;;;;;;5076525;28;19917;-77
2022/08/28 16:27:47;;;;;;;;;;;;;;;;;;5067108;28;19908;-77
2022/08/28 16:30:34;;;;;;;;;;;;;;;;;;5062861;28;20006;-78
2022/08/28 16:33:21;;;;;;;;;;;;;;;;;;5069424;28;19912;-78
2022/08/28 16:36:07;;;;;;;;;;;;;;;;;;5069258;28;19927;-76
2022/08/28 16:38:54;;;;;;;;;;;;;;;;;;5074473;28;19920;-76
2022/08/28 16:41:40;;;;;;;;;;;;;;;;;;5066364;28;19917;-77
2022/08/28 16:44:27;;;;;;;;;;;;;;;;;;5069933;28;19916;-78
2022/08/28 16:47:13;;;;;;;;;;;;;;;;;;5070644;28;19912;-77
2022/08/28 16:50:00;;;;;;;;;;;;;;;;;;5067562;28;20002;-78
2022/08/28 16:52:47;;;;;;;;;;;;;;;;;;5066541;28;19917;-78
2022/08/28 16:55:33;;;;;;;;;;;;;;;;;;5072530;28;19927;-78
2022/08/28 16:58:20;;;;;;;;;;;;;;;;;;5059281;28;20313;-82
2022/08/28 17:01:06;;;;;;;;;;;;;;;;;;5060421;28;19931;-79
2022/08/28 17:03:56;;;;;;;;;;;;;;;;;;5068420;28;19931;-78
2022/08/28 17:06:42;;;;;;;;;;;;;;;;;;5066617;28;20851;-78
2022/08/28 17:09:30;;;;;;;;;;;;;;;;;;5061547;28;19919;-78
2022/08/28 17:12:17;;;;;;;;;;;;;;;;;;5066610;28;20114;-78
2022/08/28 17:15:03;;;;;;;;;;;;;;;;;;5074227;28;19916;-78
2022/08/28 17:17:50;;;;;;;;;;;;;;;;;;5077952;28;19908;-78
2022/08/28 17:23:42;;;;;;;;;;;;;;;;;;5082394;28;19931;-78
2022/08/28 17:26:29;;;;;;;;;;;;;;;;;;5079763;28;19927;-78
2022/08/28 17:29:15;;;;;;;;;;;;;;;;;;5093241;28;19912;-78
2022/08/28 17:32:04;;;;;;;;;;;;;;;;;;5108101;28;19918;-79
2022/08/28 17:34:50;;;;;;;;;;;;;;;;;;5107320;28;19916;-78
2022/08/28 17:37:36;;;;;;;;;;;;;;;;;;5107992;28;19908;-78
2022/08/28 17:40:23;;;;;;;;;;;;;;;;;;5109238;27;19922;-79
2022/08/28 17:43:10;;;;;;;;;;;;;;;;;;5103755;28;19995;-78
2022/08/28 17:45:56;;;;;;;;;;;;;;;;;;5104709;27;19912;-78
2022/08/28 17:48:43;;;;;;;;;;;;;;;;;;5106218;27;19919;-78
2022/08/28 17:51:29;;;;;;;;;;;;;;;;;;5104637;28;19918;-78
2022/08/28 17:54:16;;;;;;;;;;;;;;;;;;5106859;28;19919;-77
2022/08/28 17:57:03;;;;;;;;;;;;;;;;;;5103069;27;19911;-78
2022/08/28 17:59:49;;;;;;;;;;;;;;;;;;5107369;28;19912;-78
2022/08/28 18:02:38;;;;;;;;;;;;;;;;;;5105833;27;20686;-78
2022/08/28 18:05:24;;;;;;;;;;;;;;;;;;5106773;27;19928;-78
2022/08/28 18:08:11;;;;;;;;;;;;;;;;;;5105280;28;19918;-79
2022/08/28 18:10:57;;;;;;;;;;;;;;;;;;5101317;28;20033;-79
2022/08/28 18:13:44;;;;;;;;;;;;;;;;;;5097150;28;20366;-78
2022/08/28 18:16:30;;;;;;;;;;;;;;;;;;5100325;28;19924;-78
2022/08/28 18:19:17;;;;;;;;;;;;;;;;;;5100340;28;19915;-78
2022/08/28 18:22:03;;;;;;;;;;;;;;;;;;5099228;28;19922;-78
2022/08/28 18:24:53;;;;;;;;;;;;;;;;;;5093194;28;19920;-77
2022/08/28 18:27:39;;;;;;;;;;;;;;;;;;5103488;28;19918;-77
2022/08/28 18:30:26;;;;;;;;;;;;;;;;;;5104698;27;20367;-79
2022/08/28 18:33:12;;;;;;;;;;;;;;;;;;5108210;28;19918;-76
2022/08/28 18:35:59;;;;;;;;;;;;;;;;;;5092757;28;19919;-77
2022/08/28 18:38:46;;;;;;;;;;;;;;;;;;5103869;28;19931;-76
2022/08/28 18:41:32;;;;;;;;;;;;;;;;;;5105032;28;19934;-75
2022/08/28 18:44:18;;;;;;;;;;;;;;;;;;5103715;28;19916;-75
2022/08/28 18:47:05;;;;;;;;;;;;;;;;;;5103065;28;19912;-76
2022/08/28 18:49:51;;;;;;;;;;;;;;;;;;5104831;28;20375;-76
2022/08/28 18:52:38;;;;;;;;;;;;;;;;;;5107180;28;19923;-75
2022/08/28 18:55:24;;;;;;;;;;;;;;;;;;5109373;28;19912;-76
2022/08/28 18:58:11;;;;;;;;;;;;;;;;;;5117150;27;19915;-76
2022/08/28 19:00:57;;;;;;;;;;;;;;;;;;5109316;28;19908;-75
2022/08/28 19:03:44;;;;;;;;;;;;;;;;;;5115305;27;20646;-74
2022/08/28 19:06:30;;;;;;;;;;;;;;;;;;5110893;27;19930;-75
2022/08/28 19:09:17;;;;;;;;;;;;;;;;;;5106601;27;20292;-75
2022/08/28 19:12:03;;;;;;;;;;;;;;;;;;5114024;27;19922;-76
2022/08/28 19:14:50;;;;;;;;;;;;;;;;;;5112172;27;19939;-77
2022/08/28 19:17:36;;;;;;;;;;;;;;;;;;5113899;27;19924;-77
2022/08/28 19:20:23;;;;;;;;;;;;;;;;;;5106937;27;20545;-77